sensor_id;sensor_type;location;lat;lon;timestamp;temperature;humidity
43697;DHT22;29301;47.620;19.560;2022-07-05T00:01:47;26.70;62.70
43697;DHT22;29301;47.620;19.560;2022-07-05T00:04:13;26.60;62.40
43697;DHT22;29301;47.620;19.560;2022-07-05T00:06:38;26.50;62.10
43697;DHT22;29301;47.620;19.560;2022-07-05T00:09:24;26.60;62.30
43697;DHT22;29301;47.620;19.560;2022-07-05T00:11:50;26.60;62.90
43697;DHT22;29301;47.620;19.560;2022-07-05T00:14:16;26.50;62.60
43697;DHT22;29301;47.620;19.560;2022-07-05T00:16:41;26.50;63.30
43697;DHT22;29301;47.620;19.560;2022-07-05T00:19:08;26.50;62.80
43697;DHT22;29301;47.620;19.560;2022-07-05T00:21:33;26.50;62.90
43697;DHT22;29301;47.620;19.560;2022-07-05T00:23:59;26.50;62.90
43697;DHT22;29301;47.620;19.560;2022-07-05T00:26:25;26.50;63.00
43697;DHT22;29301;47.620;19.560;2022-07-05T00:28:50;26.50;63.00
43697;DHT22;29301;47.620;19.560;2022-07-05T00:31:16;26.50;63.20
43697;DHT22;29301;47.620;19.560;2022-07-05T00:33:42;26.50;63.40
43697;DHT22;29301;47.620;19.560;2022-07-05T00:36:07;26.50;63.30
43697;DHT22;29301;47.620;19.560;2022-07-05T00:38:33;26.50;63.30
43697;DHT22;29301;47.620;19.560;2022-07-05T00:40:59;26.50;63.30
43697;DHT22;29301;47.620;19.560;2022-07-05T00:43:24;26.50;63.60
43697;DHT22;29301;47.620;19.560;2022-07-05T00:45:50;26.40;63.80
43697;DHT22;29301;47.620;19.560;2022-07-05T00:48:16;26.30;64.10
43697;DHT22;29301;47.620;19.560;2022-07-05T00:50:42;26.20;64.30
43697;DHT22;29301;47.620;19.560;2022-07-05T00:53:08;26.20;64.30
43697;DHT22;29301;47.620;19.560;2022-07-05T00:55:34;26.20;64.40
43697;DHT22;29301;47.620;19.560;2022-07-05T00:58:00;26.20;64.20
43697;DHT22;29301;47.620;19.560;2022-07-05T01:00:25;26.20;64.60
43697;DHT22;29301;47.620;19.560;2022-07-05T01:02:51;26.20;65.00
43697;DHT22;29301;47.620;19.560;2022-07-05T01:05:17;26.20;64.70
43697;DHT22;29301;47.620;19.560;2022-07-05T01:07:44;26.10;64.80
43697;DHT22;29301;47.620;19.560;2022-07-05T01:10:10;26.10;64.80
43697;DHT22;29301;47.620;19.560;2022-07-05T01:12:38;26.10;65.00
43697;DHT22;29301;47.620;19.560;2022-07-05T01:15:05;26.00;64.90
43697;DHT22;29301;47.620;19.560;2022-07-05T01:17:32;26.00;65.00
43697;DHT22;29301;47.620;19.560;2022-07-05T01:19:58;25.90;65.00
43697;DHT22;29301;47.620;19.560;2022-07-05T01:22:25;25.90;65.00
43697;DHT22;29301;47.620;19.560;2022-07-05T01:24:52;25.90;65.20
43697;DHT22;29301;47.620;19.560;2022-07-05T01:27:21;25.90;65.10
43697;DHT22;29301;47.620;19.560;2022-07-05T01:29:47;25.90;65.20
43697;DHT22;29301;47.620;19.560;2022-07-05T01:32:13;25.80;65.50
43697;DHT22;29301;47.620;19.560;2022-07-05T01:34:40;25.70;65.70
43697;DHT22;29301;47.620;19.560;2022-07-05T01:37:06;25.70;65.50
43697;DHT22;29301;47.620;19.560;2022-07-05T01:39:32;25.70;65.90
43697;DHT22;29301;47.620;19.560;2022-07-05T01:41:59;25.60;66.20
43697;DHT22;29301;47.620;19.560;2022-07-05T01:44:24;25.60;66.30
43697;DHT22;29301;47.620;19.560;2022-07-05T01:46:54;25.60;66.50
43697;DHT22;29301;47.620;19.560;2022-07-05T01:49:22;25.60;66.80
43697;DHT22;29301;47.620;19.560;2022-07-05T01:51:56;25.50;67.00
43697;DHT22;29301;47.620;19.560;2022-07-05T01:54:23;25.50;67.60
43697;DHT22;29301;47.620;19.560;2022-07-05T01:56:49;25.40;67.60
43697;DHT22;29301;47.620;19.560;2022-07-05T01:59:15;25.50;68.10
43697;DHT22;29301;47.620;19.560;2022-07-05T02:01:41;25.40;68.00
43697;DHT22;29301;47.620;19.560;2022-07-05T02:04:08;25.50;68.30
43697;DHT22;29301;47.620;19.560;2022-07-05T02:06:34;25.50;68.30
43697;DHT22;29301;47.620;19.560;2022-07-05T02:09:03;25.40;68.70
43697;DHT22;29301;47.620;19.560;2022-07-05T02:11:28;25.40;68.90
43697;DHT22;29301;47.620;19.560;2022-07-05T02:13:54;25.30;69.30
43697;DHT22;29301;47.620;19.560;2022-07-05T02:16:24;25.30;69.90
43697;DHT22;29301;47.620;19.560;2022-07-05T02:18:50;25.30;70.20
43697;DHT22;29301;47.620;19.560;2022-07-05T02:21:16;25.20;70.80
43697;DHT22;29301;47.620;19.560;2022-07-05T02:23:42;25.20;70.90
43697;DHT22;29301;47.620;19.560;2022-07-05T02:26:07;25.20;71.30
43697;DHT22;29301;47.620;19.560;2022-07-05T02:28:33;25.30;71.40
43697;DHT22;29301;47.620;19.560;2022-07-05T02:30:59;25.20;71.40
43697;DHT22;29301;47.620;19.560;2022-07-05T02:33:24;25.20;71.40
43697;DHT22;29301;47.620;19.560;2022-07-05T02:35:50;25.20;72.30
43697;DHT22;29301;47.620;19.560;2022-07-05T02:38:16;25.20;72.70
43697;DHT22;29301;47.620;19.560;2022-07-05T02:40:41;25.20;73.00
43697;DHT22;29301;47.620;19.560;2022-07-05T02:43:07;25.20;73.50
43697;DHT22;29301;47.620;19.560;2022-07-05T02:45:33;25.10;73.30
43697;DHT22;29301;47.620;19.560;2022-07-05T02:47:58;25.10;73.40
43697;DHT22;29301;47.620;19.560;2022-07-05T02:50:24;25.10;73.30
43697;DHT22;29301;47.620;19.560;2022-07-05T02:52:50;25.20;73.80
43697;DHT22;29301;47.620;19.560;2022-07-05T02:55:16;25.20;73.80
43697;DHT22;29301;47.620;19.560;2022-07-05T02:57:41;25.20;74.10
43697;DHT22;29301;47.620;19.560;2022-07-05T03:00:08;25.20;74.70
43697;DHT22;29301;47.620;19.560;2022-07-05T03:02:33;25.20;74.90
43697;DHT22;29301;47.620;19.560;2022-07-05T03:04:59;25.10;75.10
43697;DHT22;29301;47.620;19.560;2022-07-05T03:07:25;25.20;75.60
43697;DHT22;29301;47.620;19.560;2022-07-05T03:09:50;25.10;75.80
43697;DHT22;29301;47.620;19.560;2022-07-05T03:12:16;25.10;76.00
43697;DHT22;29301;47.620;19.560;2022-07-05T03:14:42;25.10;76.00
43697;DHT22;29301;47.620;19.560;2022-07-05T03:17:07;25.10;76.20
43697;DHT22;29301;47.620;19.560;2022-07-05T03:19:33;25.10;76.30
43697;DHT22;29301;47.620;19.560;2022-07-05T03:21:59;25.20;75.50
43697;DHT22;29301;47.620;19.560;2022-07-05T03:24:25;25.20;76.30
43697;DHT22;29301;47.620;19.560;2022-07-05T03:26:50;25.20;76.40
43697;DHT22;29301;47.620;19.560;2022-07-05T03:29:16;25.20;76.60
43697;DHT22;29301;47.620;19.560;2022-07-05T03:31:42;25.20;76.70
43697;DHT22;29301;47.620;19.560;2022-07-05T03:34:08;25.20;76.80
43697;DHT22;29301;47.620;19.560;2022-07-05T03:36:34;25.20;77.20
43697;DHT22;29301;47.620;19.560;2022-07-05T03:38:59;25.20;77.70
43697;DHT22;29301;47.620;19.560;2022-07-05T03:41:25;25.10;77.80
43697;DHT22;29301;47.620;19.560;2022-07-05T03:43:51;25.10;79.60
43697;DHT22;29301;47.620;19.560;2022-07-05T03:46:16;25.00;80.50
43697;DHT22;29301;47.620;19.560;2022-07-05T03:48:42;25.00;80.20
43697;DHT22;29301;47.620;19.560;2022-07-05T03:51:08;25.00;80.10
43697;DHT22;29301;47.620;19.560;2022-07-05T03:53:33;25.00;79.50
43697;DHT22;29301;47.620;19.560;2022-07-05T03:55:59;25.00;79.90
43697;DHT22;29301;47.620;19.560;2022-07-05T03:58:25;25.10;80.20
43697;DHT22;29301;47.620;19.560;2022-07-05T04:00:50;25.10;79.30
43697;DHT22;29301;47.620;19.560;2022-07-05T04:03:16;25.10;79.40
43697;DHT22;29301;47.620;19.560;2022-07-05T04:05:42;25.10;80.10
43697;DHT22;29301;47.620;19.560;2022-07-05T04:08:08;25.00;80.10
43697;DHT22;29301;47.620;19.560;2022-07-05T04:10:33;25.10;81.00
43697;DHT22;29301;47.620;19.560;2022-07-05T04:12:59;25.00;81.70
43697;DHT22;29301;47.620;19.560;2022-07-05T04:15:25;25.10;81.60
43697;DHT22;29301;47.620;19.560;2022-07-05T04:17:52;25.10;81.30
43697;DHT22;29301;47.620;19.560;2022-07-05T04:20:19;25.10;80.60
43697;DHT22;29301;47.620;19.560;2022-07-05T04:22:49;25.10;80.50
43697;DHT22;29301;47.620;19.560;2022-07-05T04:25:15;25.00;80.90
43697;DHT22;29301;47.620;19.560;2022-07-05T04:27:47;25.00;81.30
43697;DHT22;29301;47.620;19.560;2022-07-05T04:30:14;25.00;80.90
43697;DHT22;29301;47.620;19.560;2022-07-05T04:32:40;25.00;81.80
43697;DHT22;29301;47.620;19.560;2022-07-05T04:35:06;25.10;82.30
43697;DHT22;29301;47.620;19.560;2022-07-05T04:37:32;25.10;82.20
43697;DHT22;29301;47.620;19.560;2022-07-05T04:39:58;25.10;81.90
43697;DHT22;29301;47.620;19.560;2022-07-05T04:42:23;25.20;81.80
43697;DHT22;29301;47.620;19.560;2022-07-05T04:44:49;25.20;81.30
43697;DHT22;29301;47.620;19.560;2022-07-05T04:47:15;25.20;80.80
43697;DHT22;29301;47.620;19.560;2022-07-05T04:49:40;25.20;80.30
43697;DHT22;29301;47.620;19.560;2022-07-05T04:52:06;25.20;80.00
43697;DHT22;29301;47.620;19.560;2022-07-05T04:54:32;25.20;79.60
43697;DHT22;29301;47.620;19.560;2022-07-05T04:56:57;25.20;77.90
43697;DHT22;29301;47.620;19.560;2022-07-05T04:59:23;25.20;77.70
43697;DHT22;29301;47.620;19.560;2022-07-05T05:01:49;25.20;77.50
43697;DHT22;29301;47.620;19.560;2022-07-05T05:04:15;25.20;77.20
43697;DHT22;29301;47.620;19.560;2022-07-05T05:06:40;25.20;77.10
43697;DHT22;29301;47.620;19.560;2022-07-05T05:09:06;25.30;77.00
43697;DHT22;29301;47.620;19.560;2022-07-05T05:11:32;25.30;76.80
43697;DHT22;29301;47.620;19.560;2022-07-05T05:13:57;25.40;76.30
43697;DHT22;29301;47.620;19.560;2022-07-05T05:16:23;25.50;76.00
43697;DHT22;29301;47.620;19.560;2022-07-05T05:18:49;25.50;76.30
43697;DHT22;29301;47.620;19.560;2022-07-05T05:21:15;25.50;76.00
43697;DHT22;29301;47.620;19.560;2022-07-05T05:23:41;25.50;76.30
43697;DHT22;29301;47.620;19.560;2022-07-05T05:26:06;25.50;76.00
43697;DHT22;29301;47.620;19.560;2022-07-05T05:28:32;25.60;76.10
43697;DHT22;29301;47.620;19.560;2022-07-05T05:30:59;25.60;75.70
43697;DHT22;29301;47.620;19.560;2022-07-05T05:33:25;25.60;75.50
43697;DHT22;29301;47.620;19.560;2022-07-05T05:35:50;25.60;75.40
43697;DHT22;29301;47.620;19.560;2022-07-05T05:38:16;25.70;75.30
43697;DHT22;29301;47.620;19.560;2022-07-05T05:40:42;25.70;75.10
43697;DHT22;29301;47.620;19.560;2022-07-05T05:43:10;25.80;75.00
43697;DHT22;29301;47.620;19.560;2022-07-05T05:45:36;25.80;75.10
43697;DHT22;29301;47.620;19.560;2022-07-05T05:48:02;25.90;75.40
43697;DHT22;29301;47.620;19.560;2022-07-05T05:50:33;25.90;74.90
43697;DHT22;29301;47.620;19.560;2022-07-05T05:53:00;26.00;75.00
43697;DHT22;29301;47.620;19.560;2022-07-05T05:55:26;26.10;74.70
43697;DHT22;29301;47.620;19.560;2022-07-05T05:57:53;26.10;74.90
43697;DHT22;29301;47.620;19.560;2022-07-05T06:00:20;26.10;74.00
43697;DHT22;29301;47.620;19.560;2022-07-05T06:02:47;26.10;73.40
43697;DHT22;29301;47.620;19.560;2022-07-05T06:05:14;26.10;73.10
43697;DHT22;29301;47.620;19.560;2022-07-05T06:07:58;26.10;73.70
43697;DHT22;29301;47.620;19.560;2022-07-05T06:10:31;26.10;73.00
43697;DHT22;29301;47.620;19.560;2022-07-05T06:12:59;26.10;72.50
43697;DHT22;29301;47.620;19.560;2022-07-05T06:15:25;26.20;72.50
43697;DHT22;29301;47.620;19.560;2022-07-05T06:17:50;26.10;72.50
43697;DHT22;29301;47.620;19.560;2022-07-05T06:20:24;26.10;72.90
43697;DHT22;29301;47.620;19.560;2022-07-05T06:22:51;26.10;73.10
43697;DHT22;29301;47.620;19.560;2022-07-05T06:25:17;26.10;73.20
43697;DHT22;29301;47.620;19.560;2022-07-05T06:27:44;26.10;73.00
43697;DHT22;29301;47.620;19.560;2022-07-05T06:30:14;26.10;72.80
43697;DHT22;29301;47.620;19.560;2022-07-05T06:32:40;26.20;72.80
43697;DHT22;29301;47.620;19.560;2022-07-05T06:35:08;26.20;72.30
43697;DHT22;29301;47.620;19.560;2022-07-05T06:37:47;26.20;71.60
43697;DHT22;29301;47.620;19.560;2022-07-05T06:40:17;26.30;71.40
43697;DHT22;29301;47.620;19.560;2022-07-05T06:42:43;26.30;71.00
43697;DHT22;29301;47.620;19.560;2022-07-05T06:45:09;26.30;70.10
43697;DHT22;29301;47.620;19.560;2022-07-05T06:47:35;26.30;69.50
43697;DHT22;29301;47.620;19.560;2022-07-05T06:50:02;26.40;69.30
43697;DHT22;29301;47.620;19.560;2022-07-05T06:52:29;26.40;68.80
43697;DHT22;29301;47.620;19.560;2022-07-05T06:54:55;26.50;68.80
43697;DHT22;29301;47.620;19.560;2022-07-05T06:57:21;26.60;68.90
43697;DHT22;29301;47.620;19.560;2022-07-05T06:59:47;26.60;68.50
43697;DHT22;29301;47.620;19.560;2022-07-05T07:02:13;26.60;68.20
43697;DHT22;29301;47.620;19.560;2022-07-05T07:04:39;26.70;68.30
43697;DHT22;29301;47.620;19.560;2022-07-05T07:07:05;26.80;68.40
43697;DHT22;29301;47.620;19.560;2022-07-05T07:09:51;26.80;67.40
43697;DHT22;29301;47.620;19.560;2022-07-05T07:12:16;27.00;66.80
43697;DHT22;29301;47.620;19.560;2022-07-05T07:14:42;27.10;65.80
43697;DHT22;29301;47.620;19.560;2022-07-05T07:17:08;27.20;65.30
43697;DHT22;29301;47.620;19.560;2022-07-05T07:19:33;27.40;64.00
43697;DHT22;29301;47.620;19.560;2022-07-05T07:21:59;27.50;62.60
43697;DHT22;29301;47.620;19.560;2022-07-05T07:24:25;27.60;61.40
43697;DHT22;29301;47.620;19.560;2022-07-05T07:26:50;27.60;60.70
43697;DHT22;29301;47.620;19.560;2022-07-05T07:29:29;27.70;60.00
43697;DHT22;29301;47.620;19.560;2022-07-05T07:31:56;27.80;60.00
43697;DHT22;29301;47.620;19.560;2022-07-05T07:34:22;27.80;59.50
43697;DHT22;29301;47.620;19.560;2022-07-05T07:36:48;27.90;59.50
43697;DHT22;29301;47.620;19.560;2022-07-05T07:39:14;28.00;59.70
43697;DHT22;29301;47.620;19.560;2022-07-05T07:41:40;28.50;60.10
43697;DHT22;29301;47.620;19.560;2022-07-05T07:44:05;28.80;59.10
43697;DHT22;29301;47.620;19.560;2022-07-05T07:46:31;29.00;57.90
43697;DHT22;29301;47.620;19.560;2022-07-05T07:48:57;29.10;57.30
43697;DHT22;29301;47.620;19.560;2022-07-05T07:51:23;29.20;57.40
43697;DHT22;29301;47.620;19.560;2022-07-05T07:53:49;29.20;57.00
43697;DHT22;29301;47.620;19.560;2022-07-05T07:56:15;29.30;56.80
43697;DHT22;29301;47.620;19.560;2022-07-05T07:58:41;29.50;56.50
43697;DHT22;29301;47.620;19.560;2022-07-05T08:01:07;29.70;56.50
43697;DHT22;29301;47.620;19.560;2022-07-05T08:03:37;29.90;56.30
43697;DHT22;29301;47.620;19.560;2022-07-05T08:06:03;30.20;55.50
43697;DHT22;29301;47.620;19.560;2022-07-05T08:08:29;30.30;54.40
43697;DHT22;29301;47.620;19.560;2022-07-05T08:10:55;30.50;53.90
43697;DHT22;29301;47.620;19.560;2022-07-05T08:13:20;30.60;53.80
43697;DHT22;29301;47.620;19.560;2022-07-05T08:15:47;30.70;53.20
43697;DHT22;29301;47.620;19.560;2022-07-05T08:18:13;30.70;52.90
43697;DHT22;29301;47.620;19.560;2022-07-05T08:20:57;30.60;52.00
43697;DHT22;29301;47.620;19.560;2022-07-05T08:23:41;30.50;52.30
43697;DHT22;29301;47.620;19.560;2022-07-05T08:26:07;30.50;53.00
43697;DHT22;29301;47.620;19.560;2022-07-05T08:28:32;30.70;53.20
43697;DHT22;29301;47.620;19.560;2022-07-05T08:30:58;30.70;53.20
43697;DHT22;29301;47.620;19.560;2022-07-05T08:33:23;30.80;53.60
43697;DHT22;29301;47.620;19.560;2022-07-05T08:35:49;31.00;53.60
43697;DHT22;29301;47.620;19.560;2022-07-05T08:38:15;31.10;53.30
43697;DHT22;29301;47.620;19.560;2022-07-05T08:40:48;30.90;53.20
43697;DHT22;29301;47.620;19.560;2022-07-05T08:43:15;30.80;53.30
43697;DHT22;29301;47.620;19.560;2022-07-05T08:45:43;30.90;53.40
43697;DHT22;29301;47.620;19.560;2022-07-05T08:48:09;30.80;53.90
43697;DHT22;29301;47.620;19.560;2022-07-05T08:50:38;30.90;54.20
43697;DHT22;29301;47.620;19.560;2022-07-05T08:53:05;31.00;54.40
43697;DHT22;29301;47.620;19.560;2022-07-05T08:55:32;30.90;54.00
43697;DHT22;29301;47.620;19.560;2022-07-05T08:57:58;31.10;54.10
43697;DHT22;29301;47.620;19.560;2022-07-05T09:00:24;31.10;54.30
43697;DHT22;29301;47.620;19.560;2022-07-05T09:02:50;31.30;54.30
43697;DHT22;29301;47.620;19.560;2022-07-05T09:05:18;31.20;54.10
43697;DHT22;29301;47.620;19.560;2022-07-05T09:08:00;31.10;54.20
43697;DHT22;29301;47.620;19.560;2022-07-05T09:10:30;31.20;53.60
43697;DHT22;29301;47.620;19.560;2022-07-05T09:12:57;31.10;53.80
43697;DHT22;29301;47.620;19.560;2022-07-05T09:15:23;31.00;54.20
43697;DHT22;29301;47.620;19.560;2022-07-05T09:17:49;30.90;54.20
43697;DHT22;29301;47.620;19.560;2022-07-05T09:20:19;30.90;54.40
43697;DHT22;29301;47.620;19.560;2022-07-05T09:25:24;31.00;54.40
43697;DHT22;29301;47.620;19.560;2022-07-05T09:28:03;31.10;54.60
43697;DHT22;29301;47.620;19.560;2022-07-05T09:30:38;31.30;54.30
43697;DHT22;29301;47.620;19.560;2022-07-05T09:33:12;31.20;54.20
43697;DHT22;29301;47.620;19.560;2022-07-05T09:35:43;31.10;54.30
43697;DHT22;29301;47.620;19.560;2022-07-05T09:38:20;31.20;54.30
43697;DHT22;29301;47.620;19.560;2022-07-05T09:40:58;31.40;54.50
43697;DHT22;29301;47.620;19.560;2022-07-05T09:43:25;31.50;54.10
43697;DHT22;29301;47.620;19.560;2022-07-05T09:45:58;31.80;53.80
43697;DHT22;29301;47.620;19.560;2022-07-05T09:48:25;32.00;52.90
43697;DHT22;29301;47.620;19.560;2022-07-05T09:50:51;32.00;52.70
43697;DHT22;29301;47.620;19.560;2022-07-05T09:53:20;32.00;52.30
43697;DHT22;29301;47.620;19.560;2022-07-05T09:56:03;32.10;52.20
43697;DHT22;29301;47.620;19.560;2022-07-05T09:58:29;32.30;52.20
43697;DHT22;29301;47.620;19.560;2022-07-05T10:00:55;32.40;52.20
43697;DHT22;29301;47.620;19.560;2022-07-05T10:03:21;32.40;52.00
43697;DHT22;29301;47.620;19.560;2022-07-05T10:05:46;32.60;51.50
43697;DHT22;29301;47.620;19.560;2022-07-05T10:08:13;32.60;51.50
43697;DHT22;29301;47.620;19.560;2022-07-05T10:10:41;32.70;51.30
43697;DHT22;29301;47.620;19.560;2022-07-05T10:13:08;32.70;51.80
43697;DHT22;29301;47.620;19.560;2022-07-05T10:15:35;32.80;51.40
43697;DHT22;29301;47.620;19.560;2022-07-05T10:18:10;32.80;51.30
43697;DHT22;29301;47.620;19.560;2022-07-05T10:23:07;33.20;51.30
43697;DHT22;29301;47.620;19.560;2022-07-05T10:25:35;33.30;50.80
43697;DHT22;29301;47.620;19.560;2022-07-05T10:28:02;33.30;50.30
43697;DHT22;29301;47.620;19.560;2022-07-05T10:30:29;33.40;50.60
43697;DHT22;29301;47.620;19.560;2022-07-05T10:32:56;33.50;50.80
43697;DHT22;29301;47.620;19.560;2022-07-05T10:35:22;33.50;50.70
43697;DHT22;29301;47.620;19.560;2022-07-05T10:37:48;33.50;50.20
43697;DHT22;29301;47.620;19.560;2022-07-05T10:40:15;33.30;49.70
43697;DHT22;29301;47.620;19.560;2022-07-05T10:43:11;33.00;50.30
43697;DHT22;29301;47.620;19.560;2022-07-05T10:45:47;32.90;50.40
43697;DHT22;29301;47.620;19.560;2022-07-05T10:55:58;32.40;52.50
43697;DHT22;29301;47.620;19.560;2022-07-05T11:11:40;30.70;57.40
43697;DHT22;29301;47.620;19.560;2022-07-05T11:16:45;30.40;58.20
43697;DHT22;29301;47.620;19.560;2022-07-05T11:19:16;30.20;58.70
43697;DHT22;29301;47.620;19.560;2022-07-05T11:22:01;29.90;59.10
43697;DHT22;29301;47.620;19.560;2022-07-05T11:24:31;29.70;59.70
43697;DHT22;29301;47.620;19.560;2022-07-05T11:27:02;29.60;60.10
43697;DHT22;29301;47.620;19.560;2022-07-05T11:29:55;29.60;60.30
43697;DHT22;29301;47.620;19.560;2022-07-05T11:35:19;29.50;60.60
43697;DHT22;29301;47.620;19.560;2022-07-05T11:37:58;29.30;60.30
43697;DHT22;29301;47.620;19.560;2022-07-05T11:40:29;29.20;60.50
43697;DHT22;29301;47.620;19.560;2022-07-05T11:42:54;29.20;60.80
43697;DHT22;29301;47.620;19.560;2022-07-05T11:45:20;29.20;61.50
43697;DHT22;29301;47.620;19.560;2022-07-05T11:47:46;29.30;61.60
43697;DHT22;29301;47.620;19.560;2022-07-05T11:50:13;29.20;61.80
43697;DHT22;29301;47.620;19.560;2022-07-05T11:52:39;29.20;62.40
43697;DHT22;29301;47.620;19.560;2022-07-05T11:55:06;29.10;63.30
43697;DHT22;29301;47.620;19.560;2022-07-05T11:57:32;28.80;64.00
43697;DHT22;29301;47.620;19.560;2022-07-05T11:59:58;28.50;64.80
43697;DHT22;29301;47.620;19.560;2022-07-05T12:02:24;28.30;65.50
43697;DHT22;29301;47.620;19.560;2022-07-05T12:04:52;28.20;65.90
43697;DHT22;29301;47.620;19.560;2022-07-05T12:07:32;28.00;66.60
43697;DHT22;29301;47.620;19.560;2022-07-05T12:09:59;27.80;67.40
43697;DHT22;29301;47.620;19.560;2022-07-05T12:12:44;27.60;67.50
43697;DHT22;29301;47.620;19.560;2022-07-05T12:15:17;27.30;68.20
43697;DHT22;29301;47.620;19.560;2022-07-05T12:17:46;27.20;68.20
43697;DHT22;29301;47.620;19.560;2022-07-05T12:20:15;26.90;68.00
43697;DHT22;29301;47.620;19.560;2022-07-05T12:22:45;26.90;68.30
43697;DHT22;29301;47.620;19.560;2022-07-05T12:25:13;26.90;68.10
43697;DHT22;29301;47.620;19.560;2022-07-05T12:27:40;26.70;68.50
43697;DHT22;29301;47.620;19.560;2022-07-05T12:30:07;26.60;69.20
43697;DHT22;29301;47.620;19.560;2022-07-05T12:38:06;26.40;69.90
43697;DHT22;29301;47.620;19.560;2022-07-05T12:40:32;26.40;70.00
43697;DHT22;29301;47.620;19.560;2022-07-05T12:43:15;26.20;70.90
43697;DHT22;29301;47.620;19.560;2022-07-05T12:45:44;26.10;71.80
43697;DHT22;29301;47.620;19.560;2022-07-05T12:48:30;26.00;72.10
43697;DHT22;29301;47.620;19.560;2022-07-05T12:50:56;25.90;73.70
43697;DHT22;29301;47.620;19.560;2022-07-05T12:53:22;25.80;76.30
43697;DHT22;29301;47.620;19.560;2022-07-05T12:56:09;25.50;83.40
43697;DHT22;29301;47.620;19.560;2022-07-05T12:59:02;25.30;89.00
43697;DHT22;29301;47.620;19.560;2022-07-05T13:04:15;25.30;92.20
43697;DHT22;29301;47.620;19.560;2022-07-05T13:06:51;25.10;93.90
43697;DHT22;29301;47.620;19.560;2022-07-05T13:12:17;24.70;96.00
43697;DHT22;29301;47.620;19.560;2022-07-05T13:14:53;24.50;96.10
43697;DHT22;29301;47.620;19.560;2022-07-05T13:17:22;24.50;96.70
43697;DHT22;29301;47.620;19.560;2022-07-05T13:19:49;24.50;96.30
43697;DHT22;29301;47.620;19.560;2022-07-05T13:22:15;24.50;96.60
43697;DHT22;29301;47.620;19.560;2022-07-05T13:24:42;24.40;97.00
43697;DHT22;29301;47.620;19.560;2022-07-05T13:27:09;24.40;97.20
43697;DHT22;29301;47.620;19.560;2022-07-05T13:29:34;24.40;97.30
43697;DHT22;29301;47.620;19.560;2022-07-05T13:32:00;24.40;97.50
43697;DHT22;29301;47.620;19.560;2022-07-05T13:34:26;24.30;97.70
43697;DHT22;29301;47.620;19.560;2022-07-05T13:36:53;24.40;97.40
43697;DHT22;29301;47.620;19.560;2022-07-05T13:39:19;24.40;97.40
43697;DHT22;29301;47.620;19.560;2022-07-05T13:41:47;24.40;97.70
43697;DHT22;29301;47.620;19.560;2022-07-05T13:44:12;24.50;97.60
43697;DHT22;29301;47.620;19.560;2022-07-05T13:46:38;24.80;97.60
43697;DHT22;29301;47.620;19.560;2022-07-05T13:49:04;25.00;97.50
43697;DHT22;29301;47.620;19.560;2022-07-05T13:51:30;25.20;97.20
43697;DHT22;29301;47.620;19.560;2022-07-05T13:53:57;25.30;96.30
43697;DHT22;29301;47.620;19.560;2022-07-05T13:56:22;25.30;95.10
43697;DHT22;29301;47.620;19.560;2022-07-05T13:58:48;25.20;95.10
43697;DHT22;29301;47.620;19.560;2022-07-05T14:01:14;25.20;95.60
43697;DHT22;29301;47.620;19.560;2022-07-05T14:03:40;25.20;95.20
43697;DHT22;29301;47.620;19.560;2022-07-05T14:06:06;25.20;94.70
43697;DHT22;29301;47.620;19.560;2022-07-05T14:08:32;25.20;94.50
43697;DHT22;29301;47.620;19.560;2022-07-05T14:10:58;25.10;94.90
43697;DHT22;29301;47.620;19.560;2022-07-05T14:13:25;25.10;94.30
43697;DHT22;29301;47.620;19.560;2022-07-05T14:15:52;24.90;94.90
43697;DHT22;29301;47.620;19.560;2022-07-05T14:18:19;24.80;95.00
43697;DHT22;29301;47.620;19.560;2022-07-05T14:20:45;24.80;94.80
43697;DHT22;29301;47.620;19.560;2022-07-05T14:23:12;24.80;95.00
43697;DHT22;29301;47.620;19.560;2022-07-05T14:25:40;24.90;95.10
43697;DHT22;29301;47.620;19.560;2022-07-05T14:28:06;24.90;95.30
43697;DHT22;29301;47.620;19.560;2022-07-05T14:30:39;24.90;95.20
43697;DHT22;29301;47.620;19.560;2022-07-05T14:33:05;24.90;95.30
43697;DHT22;29301;47.620;19.560;2022-07-05T14:35:32;24.90;95.90
43697;DHT22;29301;47.620;19.560;2022-07-05T14:37:59;24.90;95.60
43697;DHT22;29301;47.620;19.560;2022-07-05T14:40:25;24.90;95.80
43697;DHT22;29301;47.620;19.560;2022-07-05T14:42:52;25.00;95.70
43697;DHT22;29301;47.620;19.560;2022-07-05T14:45:18;25.00;95.30
43697;DHT22;29301;47.620;19.560;2022-07-05T14:47:44;25.00;95.20
43697;DHT22;29301;47.620;19.560;2022-07-05T14:50:10;25.10;95.30
43697;DHT22;29301;47.620;19.560;2022-07-05T14:52:35;25.00;95.30
43697;DHT22;29301;47.620;19.560;2022-07-05T14:55:01;25.00;95.00
43697;DHT22;29301;47.620;19.560;2022-07-05T14:57:27;25.00;94.70
43697;DHT22;29301;47.620;19.560;2022-07-05T14:59:53;25.00;94.80
43697;DHT22;29301;47.620;19.560;2022-07-05T15:02:18;25.00;94.70
43697;DHT22;29301;47.620;19.560;2022-07-05T15:04:44;25.00;94.00
43697;DHT22;29301;47.620;19.560;2022-07-05T15:07:10;25.00;92.90
43697;DHT22;29301;47.620;19.560;2022-07-05T15:09:35;25.00;92.80
43697;DHT22;29301;47.620;19.560;2022-07-05T15:12:01;25.10;92.80
43697;DHT22;29301;47.620;19.560;2022-07-05T15:14:27;25.20;92.20
43697;DHT22;29301;47.620;19.560;2022-07-05T15:16:56;25.30;91.30
43697;DHT22;29301;47.620;19.560;2022-07-05T15:19:22;25.30;90.70
43697;DHT22;29301;47.620;19.560;2022-07-05T15:21:49;25.20;90.90
43697;DHT22;29301;47.620;19.560;2022-07-05T15:24:15;25.20;91.00
43697;DHT22;29301;47.620;19.560;2022-07-05T15:26:41;25.20;90.70
43697;DHT22;29301;47.620;19.560;2022-07-05T15:29:08;25.20;90.50
43697;DHT22;29301;47.620;19.560;2022-07-05T15:31:35;25.20;90.40
43697;DHT22;29301;47.620;19.560;2022-07-05T15:34:03;25.20;90.60
43697;DHT22;29301;47.620;19.560;2022-07-05T15:36:29;25.20;90.00
43697;DHT22;29301;47.620;19.560;2022-07-05T15:38:58;25.20;90.00
43697;DHT22;29301;47.620;19.560;2022-07-05T15:41:27;25.20;88.30
43697;DHT22;29301;47.620;19.560;2022-07-05T15:43:53;25.20;87.10
43697;DHT22;29301;47.620;19.560;2022-07-05T15:46:19;25.10;87.50
43697;DHT22;29301;47.620;19.560;2022-07-05T15:48:45;25.00;88.90
43697;DHT22;29301;47.620;19.560;2022-07-05T15:51:11;25.00;89.70
43697;DHT22;29301;47.620;19.560;2022-07-05T15:53:38;25.00;89.60
43697;DHT22;29301;47.620;19.560;2022-07-05T15:56:04;25.00;88.70
43697;DHT22;29301;47.620;19.560;2022-07-05T15:58:30;25.00;88.80
43697;DHT22;29301;47.620;19.560;2022-07-05T16:00:57;25.00;88.60